Time;durP1;ratioP1;P1;durP2;ratioP2;P2;SDS_P1;SDS_P2;PMS_P1;PMS_P2;Temp;Humidity;BMP_temperature;BMP_pressure;BME280_temperature;BME280_humidity;BME280_pressure;Samples;Min_cycle;Max_cycle;Signal;HPM_P1;HPM_P2
2022/05/14 00:02:33;;;;;;;;;7.20;7.00;;;;;21.41;36.76;98957.31;6021309;28;98410;-68
2022/05/14 00:05:36;;;;;;;;;9.40;9.00;;;;;21.48;36.25;98970.72;6040005;28;97494;-70
2022/05/14 00:08:41;;;;;;;;;8.00;8.00;;;;;21.43;36.70;98971.59;6023364;28;97052;-71
2022/05/14 00:15:06;;;;;;;;;8.20;8.00;;;;;21.43;36.44;98968.03;6046264;28;97770;-70
2022/05/14 00:18:11;;;;;;;;;8.50;8.50;;;;;21.44;36.65;98970.47;6046817;28;97292;-69
2022/05/14 00:21:15;;;;;;;;;10.00;9.00;;;;;21.39;36.45;98973.28;6043720;28;97475;-68
2022/05/14 00:24:18;;;;;;;;;9.80;9.00;;;;;21.40;36.67;98976.84;6025418;28;96782;-68
2022/05/14 00:27:22;;;;;;;;;8.00;8.00;;;;;21.37;36.50;98969.16;6042591;28;97362;-69
2022/05/14 00:30:28;;;;;;;;;9.00;9.00;;;;;21.38;36.68;98976.28;6042283;28;96688;-67
2022/05/14 00:33:33;;;;;;;;;8.00;8.00;;;;;21.37;36.69;98978.22;6026311;28;97053;-68
2022/05/14 00:36:36;;;;;;;;;9.60;9.40;;;;;21.37;36.74;98982.88;6032598;28;98658;-67
2022/05/14 00:39:42;;;;;;;;;9.40;9.40;;;;;21.25;37.32;98966.03;6025871;28;100091;-70
2022/05/14 00:42:45;;;;;;;;;10.00;10.00;;;;;21.31;37.52;98987.59;6026472;28;96405;-68
2022/05/14 00:45:59;;;;;;;;;10.20;10.20;;;;;21.11;37.60;98961.16;6010561;28;97088;-68
2022/05/14 00:49:04;;;;;;;;;10.00;9.00;;;;;21.01;37.82;98946.75;6060862;28;98094;-69
2022/05/14 00:52:14;;;;;;;;;9.20;8.00;;;;;21.23;37.86;98982.75;6014805;28;99698;-67
2022/05/14 00:55:19;;;;;;;;;11.00;9.60;;;;;21.21;37.79;98984.16;6045413;28;97431;-69
2022/05/14 00:58:32;;;;;;;;;11.75;11.00;;;;;21.16;37.90;98988.56;6041331;28;96741;-70
2022/05/14 01:01:38;;;;;;;;;10.80;10.80;;;;;21.11;38.44;98990.53;6041958;28;97648;-68
2022/05/14 01:04:44;;;;;;;;;9.60;9.60;;;;;21.02;38.38;98984.81;6025939;28;97597;-68
2022/05/14 01:07:50;;;;;;;;;10.75;10.00;;;;;20.98;38.63;98985.69;6008523;28;96724;-69
2022/05/14 01:10:54;;;;;;;;;11.00;11.00;;;;;20.94;38.67;98977.22;6042446;28;96596;-68
2022/05/14 01:13:58;;;;;;;;;11.00;10.50;;;;;20.88;38.60;98981.09;6030239;28;97475;-70
2022/05/14 01:17:04;;;;;;;;;9.00;9.00;;;;;20.79;39.07;98988.31;6009058;28;100720;-66
2022/05/14 01:20:14;;;;;;;;;9.50;9.00;;;;;20.69;39.29;98994.69;6025080;28;96868;-69
2022/05/14 01:23:30;;;;;;;;;9.00;9.00;;;;;20.60;39.30;98992.81;6038982;28;96488;-70
2022/05/14 01:26:36;;;;;;;;;11.00;10.00;;;;;20.48;39.67;98995.91;6023763;28;96595;-71
2022/05/14 01:29:48;;;;;;;;;10.00;10.00;;;;;20.37;39.58;98997.09;6022919;28;96994;-69
2022/05/14 01:33:04;;;;;;;;;10.40;10.00;;;;;20.21;39.89;98985.38;6022940;28;98698;-69
2022/05/14 01:36:14;;;;;;;;;10.20;9.80;;;;;20.20;39.83;98996.59;6019780;28;97152;-69
2022/05/14 01:39:18;;;;;;;;;10.00;9.00;;;;;20.10;40.31;98985.69;6032732;28;97434;-68
2022/05/14 01:42:23;;;;;;;;;11.00;10.00;;;;;20.06;40.04;98992.81;6022080;28;99643;-70
2022/05/14 01:45:26;;;;;;;;;9.00;9.00;;;;;19.94;40.75;98992.34;6042203;28;97017;-69
2022/05/14 01:48:30;;;;;;;;;9.75;9.25;;;;;19.82;41.11;98995.41;6052393;28;96926;-70
2022/05/14 01:51:35;;;;;;;;;10.60;10.40;;;;;19.71;41.22;98994.59;6056978;28;98537;-69
2022/05/14 01:54:42;;;;;;;;;11.00;10.50;;;;;19.60;41.64;98982.03;6034062;28;96754;-68
2022/05/14 01:57:47;;;;;;;;;10.00;9.00;;;;;19.53;41.72;98988.91;6023734;28;96937;-70
2022/05/14 02:00:51;;;;;;;;;10.75;10.00;;;;;19.42;42.23;98990.81;6021103;29;96526;-69
2022/05/14 02:03:57;;;;;;;;;9.00;9.00;;;;;19.31;42.83;98995.47;6008350;28;96672;-69
2022/05/14 02:07:02;;;;;;;;;10.80;10.00;;;;;19.21;43.03;98998.22;6041395;28;96356;-68
2022/05/14 02:10:07;;;;;;;;;10.00;9.50;;;;;19.12;43.31;98991.69;6028238;28;96656;-67
2022/05/14 02:13:12;;;;;;;;;11.20;10.00;;;;;18.99;43.44;98984.03;6027205;28;97982;-68
2022/05/14 02:16:16;;;;;;;;;10.00;9.00;;;;;18.90;43.71;98983.78;6028957;28;96771;-69
2022/05/14 02:19:19;;;;;;;;;12.40;11.40;;;;;18.83;43.99;98988.69;6036442;28;96434;-70
2022/05/14 02:22:23;;;;;;;;;11.00;10.00;;;;;18.75;43.82;98986.50;6043081;28;97436;-70
2022/05/14 02:25:26;;;;;;;;;10.00;9.00;;;;;18.60;44.37;98984.59;6032418;28;97525;-70
2022/05/14 02:28:31;;;;;;;;;11.00;10.40;;;;;18.49;44.54;98990.25;6040935;28;98091;-69
2022/05/14 02:31:35;;;;;;;;;12.00;11.60;;;;;18.38;44.88;98992.13;6026045;28;99620;-69
2022/05/14 02:34:38;;;;;;;;;10.50;10.00;;;;;18.37;44.79;98986.97;6043035;28;96801;-69
2022/05/14 02:37:42;;;;;;;;;10.00;10.00;;;;;18.30;45.50;98978.22;6029399;28;98154;-69
2022/05/14 02:40:46;;;;;;;;;11.00;10.80;;;;;18.17;45.57;98980.38;6044118;28;96578;-69
2022/05/14 02:43:53;;;;;;;;;11.00;11.00;;;;;18.12;45.76;98985.81;6024928;28;97956;-68
2022/05/14 02:46:57;;;;;;;;;12.00;10.00;;;;;18.03;45.96;98975.69;6044800;28;96424;-68
2022/05/14 02:50:01;;;;;;;;;12.00;12.00;;;;;17.93;46.16;98975.66;6043758;28;97253;-67
2022/05/14 02:53:06;;;;;;;;;9.00;9.00;;;;;17.86;46.34;98973.16;6033792;28;98875;-69
2022/05/14 02:56:09;;;;;;;;;13.00;12.00;;;;;17.85;46.26;98982.44;6027690;28;96801;-68
2022/05/14 02:59:15;;;;;;;;;9.80;9.80;;;;;17.78;46.40;98990.06;6042364;28;96411;-69
2022/05/14 03:02:18;;;;;;;;;10.80;10.80;;;;;17.80;46.46;98993.31;6042329;28;97180;-68
2022/05/14 03:05:23;;;;;;;;;13.00;12.00;;;;;17.62;46.92;98975.50;6024829;28;98621;-68
2022/05/14 03:08:27;;;;;;;;;13.00;12.00;;;;;17.72;46.51;98991.94;6039010;28;97020;-68
2022/05/14 03:11:31;;;;;;;;;12.00;11.00;;;;;17.79;46.70;98988.16;6042540;28;97450;-67
2022/05/14 03:14:37;;;;;;;;;12.00;12.00;;;;;17.86;46.45;98994.16;6038958;28;98121;-68
2022/05/14 03:17:41;;;;;;;;;11.60;11.00;;;;;17.78;46.77;98995.50;6024011;28;97619;-68
2022/05/14 03:20:44;;;;;;;;;11.40;11.40;;;;;17.74;46.86;99006.09;6023641;28;97381;-68
2022/05/14 03:23:49;;;;;;;;;12.00;12.00;;;;;17.75;46.68;99001.47;6038742;28;98642;-68
2022/05/14 03:26:53;;;;;;;;;13.00;12.00;;;;;17.79;46.64;99007.22;6036423;28;97500;-69
2022/05/14 03:29:58;;;;;;;;;13.00;12.00;;;;;17.86;46.31;99008.63;6023081;28;97395;-68
2022/05/14 03:33:01;;;;;;;;;13.20;12.80;;;;;17.92;46.29;99013.00;6043402;28;96596;-68
2022/05/14 03:36:05;;;;;;;;;14.00;13.00;;;;;17.99;45.82;99010.03;6024626;28;96808;-68
2022/05/14 03:39:10;;;;;;;;;13.20;12.20;;;;;17.91;45.87;98997.72;6025327;28;97549;-68
2022/05/14 03:42:13;;;;;;;;;13.00;13.00;;;;;18.11;45.51;99008.72;6026120;28;98268;-68
2022/05/14 03:45:18;;;;;;;;;14.00;12.60;;;;;18.19;45.48;99013.66;6048157;28;97597;-69
2022/05/14 03:48:22;;;;;;;;;16.00;14.60;;;;;18.28;44.96;99005.75;6009788;28;98126;-67
2022/05/14 03:51:25;;;;;;;;;17.75;15.00;;;;;18.29;44.87;99009.31;6024821;28;98406;-69
2022/05/14 03:54:29;;;;;;;;;17.00;16.00;;;;;18.26;44.90;99015.31;6026631;28;97820;-70
2022/05/14 03:57:32;;;;;;;;;16.50;16.00;;;;;18.21;45.07;99012.56;6049668;28;97179;-69
2022/05/14 04:00:38;;;;;;;;;18.60;17.00;;;;;18.23;45.06;99013.13;6037993;28;98067;-69
2022/05/14 04:03:41;;;;;;;;;16.00;15.00;;;;;18.24;45.01;99023.75;6040379;28;97502;-68
2022/05/14 04:06:45;;;;;;;;;15.00;15.00;;;;;18.27;45.11;99023.25;6043356;28;97363;-69
2022/05/14 04:09:49;;;;;;;;;17.00;15.60;;;;;18.32;45.12;99019.72;6041484;28;96631;-69
2022/05/14 04:12:53;;;;;;;;;16.00;16.00;;;;;18.28;45.35;99022.13;6030530;28;96599;-68
2022/05/14 04:15:58;;;;;;;;;15.00;15.00;;;;;18.40;44.78;99022.72;6027779;28;96675;-68
2022/05/14 04:19:02;;;;;;;;;15.00;15.00;;;;;18.47;44.99;99031.47;6025774;28;97401;-69
2022/05/14 04:22:06;;;;;;;;;15.00;14.00;;;;;18.56;44.77;99024.44;6040628;28;96695;-68
2022/05/14 04:25:11;;;;;;;;;18.20;15.20;;;;;18.59;44.60;99036.72;6034444;28;97561;-67
2022/05/14 04:28:16;;;;;;;;;16.00;15.00;;;;;18.71;44.73;99029.13;6007054;28;96692;-68
2022/05/14 04:31:22;;;;;;;;;15.60;14.40;;;;;18.81;44.01;99031.84;6041016;28;97553;-69
2022/05/14 04:34:26;;;;;;;;;15.00;14.00;;;;;18.88;43.94;99039.75;6025569;28;97308;-68
2022/05/14 04:37:29;;;;;;;;;16.00;15.00;;;;;18.85;43.43;99046.59;6023983;28;97410;-68
2022/05/14 04:40:33;;;;;;;;;16.00;15.00;;;;;18.91;43.18;99042.75;6024714;28;97336;-69
2022/05/14 04:43:36;;;;;;;;;15.00;14.60;;;;;18.93;43.02;99048.78;6034181;28;97096;-68
2022/05/14 04:46:41;;;;;;;;;14.80;12.80;;;;;19.09;42.62;99054.28;6036712;28;97012;-69
2022/05/14 04:49:48;;;;;;;;;13.00;12.00;;;;;19.33;42.33;99058.09;6012537;28;98440;-70
2022/05/14 04:52:56;;;;;;;;;13.00;12.40;;;;;19.45;42.17;99056.72;6026106;28;97999;-69
2022/05/14 04:56:00;;;;;;;;;14.67;14.00;;;;;19.54;41.92;99062.50;6037519;28;97140;-69
2022/05/14 04:59:05;;;;;;;;;15.00;14.00;;;;;19.61;42.22;99063.00;6024540;28;97333;-68
2022/05/14 05:05:32;;;;;;;;;13.20;12.20;;;;;20.13;40.50;99061.78;6022051;28;97387;-69
2022/05/14 05:08:38;;;;;;;;;16.40;15.00;;;;;20.37;39.17;99062.00;6029204;28;98308;-69
2022/05/14 05:11:41;;;;;;;;;15.50;14.50;;;;;20.66;38.94;99069.22;6007202;28;97746;-68
2022/05/14 05:14:45;;;;;;;;;16.25;13.25;;;;;20.74;38.48;99074.09;6044688;28;97082;-70
2022/05/14 05:17:50;;;;;;;;;13.00;12.60;;;;;20.93;37.58;99073.44;6026203;28;97670;-69
2022/05/14 05:20:55;;;;;;;;;13.00;13.00;;;;;21.17;36.75;99066.16;6045437;28;98142;-70
2022/05/14 05:23:59;;;;;;;;;12.60;12.00;;;;;21.33;36.27;99070.41;6045376;28;96590;-68
2022/05/14 05:27:02;;;;;;;;;11.00;10.00;;;;;21.32;36.34;99044.09;6012968;28;96637;-68
2022/05/14 05:30:07;;;;;;;;;11.00;10.40;;;;;21.62;36.26;99062.19;6052567;28;97414;-69
2022/05/14 05:33:14;;;;;;;;;12.00;12.00;;;;;21.74;35.86;99061.81;6055676;28;97548;-68
2022/05/14 05:36:18;;;;;;;;;8.50;8.50;;;;;21.89;35.06;99067.13;6027333;28;96859;-68
2022/05/14 05:39:21;;;;;;;;;9.00;8.00;;;;;22.01;34.40;99064.81;6040233;28;97062;-69
2022/05/14 05:42:25;;;;;;;;;9.00;8.00;;;;;22.08;33.85;99059.81;6044736;28;96670;-69
2022/05/14 05:45:29;;;;;;;;;9.20;8.40;;;;;22.24;34.10;99066.75;6044278;28;98366;-67
2022/05/14 05:48:34;;;;;;;;;11.00;9.50;;;;;22.38;34.12;99066.88;6042269;28;97656;-68
2022/05/14 05:51:38;;;;;;;;;9.00;8.00;;;;;22.38;33.23;99064.91;6019771;28;96778;-69
2022/05/14 05:58:03;;;;;;;;;11.00;10.00;;;;;22.45;33.51;99065.38;6038269;28;96955;-70
2022/05/14 06:01:06;;;;;;;;;10.00;9.00;;;;;22.51;33.63;99059.81;6043422;28;97449;-69
2022/05/14 06:04:12;;;;;;;;;9.00;8.20;;;;;22.77;33.63;99063.88;6044989;28;97155;-69
2022/05/14 06:07:16;;;;;;;;;9.00;8.00;;;;;22.87;33.24;99063.75;6044142;28;96720;-69
2022/05/14 06:10:22;;;;;;;;;9.40;9.00;;;;;22.99;33.33;99072.34;6051524;28;96581;-69
2022/05/14 06:13:26;;;;;;;;;11.80;10.80;;;;;23.01;33.19;99072.88;6022206;29;96501;-67
2022/05/14 06:16:29;;;;;;;;;10.20;10.00;;;;;22.99;32.68;99075.09;6027480;28;97822;-69
2022/05/14 06:19:34;;;;;;;;;12.00;11.00;;;;;23.11;32.45;99074.63;6045790;28;96740;-70
2022/05/14 06:22:37;;;;;;;;;13.40;12.00;;;;;23.17;31.86;99068.75;6027149;28;96902;-69
2022/05/14 06:25:40;;;;;;;;;10.00;9.00;;;;;23.29;31.82;99069.09;6031926;28;96724;-68
2022/05/14 06:28:44;;;;;;;;;8.00;7.60;;;;;23.38;32.06;99058.22;6043989;28;97449;-71
2022/05/14 06:31:48;;;;;;;;;9.00;8.60;;;;;23.61;31.92;99065.53;6027812;28;97833;-68
2022/05/14 06:34:53;;;;;;;;;9.40;9.00;;;;;23.65;31.14;99071.28;6044505;28;96504;-68
2022/05/14 06:37:56;;;;;;;;;8.00;8.00;;;;;23.48;30.88;99066.34;6031648;28;97417;-68
2022/05/14 06:41:05;;;;;;;;;7.00;7.00;;;;;23.56;31.07;99057.38;6027261;28;96828;-68
2022/05/14 06:44:09;;;;;;;;;8.00;7.50;;;;;23.69;30.90;99042.84;6027157;28;96800;-69
2022/05/14 06:47:12;;;;;;;;;6.75;6.00;;;;;24.03;30.72;99042.47;6027405;28;96391;-69
2022/05/14 06:50:17;;;;;;;;;8.00;8.00;;;;;24.17;30.60;99042.50;6043914;28;97444;-68
2022/05/14 06:53:22;;;;;;;;;7.00;7.00;;;;;24.34;30.57;99045.41;6043910;28;96694;-69
2022/05/14 06:56:27;;;;;;;;;6.40;6.00;;;;;24.56;30.35;99040.00;6027441;28;97097;-68
2022/05/14 06:59:31;;;;;;;;;7.80;7.80;;;;;24.79;30.29;99028.97;6026663;28;97282;-69
2022/05/14 07:02:36;;;;;;;;;7.60;7.60;;;;;24.98;29.48;99030.47;6044611;28;96890;-69
2022/05/14 07:09:03;;;;;;;;;9.20;7.80;;;;;25.01;28.26;99037.34;6044045;28;97479;-69
2022/05/14 07:12:09;;;;;;;;;8.50;7.00;;;;;24.80;28.42;99036.13;6043922;28;96598;-69
2022/05/14 07:15:12;;;;;;;;;6.00;5.00;;;;;24.96;28.90;99041.03;6027496;28;96945;-69
2022/05/14 07:18:17;;;;;;;;;6.00;6.00;;;;;25.18;28.87;99045.72;6046853;28;97098;-69
2022/05/14 07:21:21;;;;;;;;;5.75;5.00;;;;;25.29;28.72;99047.13;6042733;28;96678;-69
2022/05/14 07:24:28;;;;;;;;;7.00;7.00;;;;;25.37;28.15;99053.81;6043170;28;96491;-69
2022/05/14 07:27:31;;;;;;;;;6.00;5.75;;;;;25.40;27.96;99053.19;6044505;28;97223;-69
2022/05/14 07:30:35;;;;;;;;;5.00;5.00;;;;;25.60;28.02;99057.41;6044054;28;97131;-69
2022/05/14 07:33:39;;;;;;;;;7.25;6.00;;;;;25.59;27.41;99062.13;6025616;28;99280;-69
2022/05/14 07:36:49;;;;;;;;;7.00;7.00;;;;;25.85;28.41;99067.78;6043046;28;97535;-68
2022/05/14 07:39:55;;;;;;;;;7.00;6.00;;;;;25.95;27.33;99053.66;6008441;28;98396;-68
2022/05/14 07:43:03;;;;;;;;;6.00;6.00;;;;;26.30;26.71;99060.97;6044090;28;96537;-68
2022/05/14 07:46:12;;;;;;;;;8.00;7.00;;;;;26.40;26.57;99057.09;6041843;28;96709;-68
2022/05/14 07:49:17;;;;;;;;;7.00;6.00;;;;;26.58;27.08;99052.44;6040275;28;97950;-69
2022/05/14 07:52:23;;;;;;;;;6.00;6.00;;;;;26.64;25.96;99054.72;6041065;28;96875;-69
2022/05/14 07:55:27;;;;;;;;;6.00;5.80;;;;;26.56;26.49;99055.53;6025274;28;100162;-69
2022/05/14 07:58:31;;;;;;;;;7.00;7.00;;;;;26.35;26.48;99059.19;6019713;28;96790;-68
2022/05/14 08:01:34;;;;;;;;;8.50;8.00;;;;;26.09;26.92;99059.94;6023985;28;100101;-68
2022/05/14 08:04:41;;;;;;;;;8.00;7.00;;;;;26.20;26.94;99068.72;6045239;28;96563;-68
2022/05/14 08:07:45;;;;;;;;;8.00;7.60;;;;;26.50;27.19;99059.56;6043788;28;97000;-69
2022/05/14 08:10:50;;;;;;;;;7.00;7.00;;;;;26.85;26.89;99067.91;6042326;28;97517;-69
2022/05/14 08:13:54;;;;;;;;;7.80;7.80;;;;;27.00;26.34;99062.75;6040338;28;96819;-67
2022/05/14 08:16:58;;;;;;;;;6.00;5.00;;;;;27.25;26.36;99068.59;6025000;28;96651;-69
2022/05/14 08:20:02;;;;;;;;;4.60;4.00;;;;;27.64;25.66;99062.06;6041632;28;96648;-69
2022/05/14 08:26:28;;;;;;;;;8.00;7.00;;;;;27.81;26.12;99050.91;6031119;28;97521;-69
2022/05/14 08:29:32;;;;;;;;;6.00;6.00;;;;;27.84;25.66;99055.81;6042810;28;98165;-69
2022/05/14 08:32:35;;;;;;;;;6.00;6.00;;;;;27.92;24.26;99054.97;6039136;28;97872;-68
2022/05/14 08:35:40;;;;;;;;;8.60;8.20;;;;;27.75;25.32;99049.50;6042054;28;97466;-67
2022/05/14 08:38:45;;;;;;;;;6.00;5.00;;;;;27.45;25.17;99049.38;6040739;28;97438;-69
2022/05/14 08:41:51;;;;;;;;;7.00;7.00;;;;;27.62;25.42;99047.72;6041071;28;96698;-70
2022/05/14 08:44:55;;;;;;;;;7.80;7.00;;;;;27.61;25.18;99054.44;6042816;28;97243;-68
2022/05/14 08:48:02;;;;;;;;;8.00;8.00;;;;;27.85;24.51;99049.13;6043788;28;97656;-69
2022/05/14 08:51:08;;;;;;;;;6.40;6.40;;;;;27.68;25.31;99043.63;6058750;28;96793;-69
2022/05/14 08:54:13;;;;;;;;;9.00;8.00;;;;;27.57;25.92;99049.53;6046967;28;96623;-69
2022/05/14 08:57:25;;;;;;;;;8.00;7.40;;;;;27.34;25.30;99044.50;6046484;28;96734;-68
2022/05/14 09:00:28;;;;;;;;;7.00;7.00;;;;;27.61;25.66;99041.38;6026766;28;96747;-71
2022/05/14 09:03:32;;;;;;;;;7.00;7.00;;;;;28.02;24.69;99021.34;6036133;28;97515;-69
2022/05/14 09:06:36;;;;;;;;;9.00;8.00;;;;;27.56;24.80;99028.50;6029787;28;96972;-70
2022/05/14 09:09:50;;;;;;;;;10.00;8.00;;;;;26.90;25.86;99026.28;6029639;28;96582;-70
2022/05/14 09:12:57;;;;;;;;;9.00;8.60;;;;;26.42;26.81;99026.38;6047197;28;97420;-68
2022/05/14 09:16:02;;;;;;;;;8.00;8.00;;;;;26.03;27.51;99029.97;6045008;28;96514;-68
2022/05/14 09:19:13;;;;;;;;;9.00;8.00;;;;;26.10;27.13;99016.50;6023972;28;96630;-69
2022/05/14 09:22:27;;;;;;;;;8.20;7.80;;;;;26.70;27.83;99011.94;6045701;28;96763;-70
2022/05/14 09:25:37;;;;;;;;;8.00;7.60;;;;;26.41;26.29;99000.69;6028741;28;99720;-69
2022/05/14 09:28:45;;;;;;;;;9.00;9.00;;;;;26.40;26.09;99012.06;6046364;28;96915;-69
2022/05/14 09:31:54;;;;;;;;;8.60;8.00;;;;;26.60;26.17;99006.72;6046678;28;97011;-68
2022/05/14 09:35:13;;;;;;;;;5.60;5.60;;;;;26.69;25.80;99003.97;6043919;28;96545;-70
2022/05/14 09:38:26;;;;;;;;;8.00;8.00;;;;;26.73;25.98;99018.78;6043145;28;97395;-70
2022/05/14 09:41:39;;;;;;;;;7.80;6.80;;;;;26.58;26.07;99005.44;6038812;28;98482;-68
2022/05/14 09:44:47;;;;;;;;;6.50;6.00;;;;;27.11;25.28;99007.91;6027810;28;98742;-69
2022/05/14 09:47:52;;;;;;;;;5.00;5.00;;;;;27.77;25.16;99000.91;6045113;28;96645;-70
2022/05/14 09:50:58;;;;;;;;;5.80;5.80;;;;;27.53;24.25;99000.66;6045667;28;96590;-68
2022/05/14 09:54:11;;;;;;;;;6.00;6.00;;;;;27.64;23.64;99001.94;6027983;28;98982;-68
2022/05/14 09:57:33;;;;;;;;;7.00;6.00;;;;;27.82;23.57;98991.59;6045858;28;96440;-64
2022/05/14 10:00:55;;;;;;;;;5.00;5.00;;;;;27.54;23.61;98994.81;6027317;28;97290;-67
2022/05/14 10:04:15;;;;;;;;;5.80;5.80;;;;;27.19;23.90;98990.47;6012041;28;97079;-68
2022/05/14 10:07:24;;;;;;;;;6.67;6.67;;;;;27.12;24.57;98998.47;6059547;28;97486;-67
2022/05/14 10:10:43;;;;;;;;;6.40;5.60;;;;;27.33;24.45;98991.06;6045557;28;96638;-67
2022/05/14 10:13:55;;;;;;;;;5.00;4.60;;;;;27.69;23.47;98995.41;6028989;28;96799;-70
2022/05/14 10:17:18;;;;;;;;;6.60;6.00;;;;;27.89;23.32;98989.94;6045595;28;96439;-69
2022/05/14 10:20:36;;;;;;;;;7.40;7.00;;;;;27.73;23.73;98994.41;6026795;28;97031;-65
2022/05/14 10:27:40;;;;;;;;;6.60;6.00;;;;;28.13;23.97;98988.53;6045431;28;97603;-66
2022/05/14 10:30:54;;;;;;;;;5.00;4.00;;;;;27.95;23.67;98999.69;6045043;28;97148;-66
2022/05/14 10:34:03;;;;;;;;;6.00;6.00;;;;;27.66;23.77;98976.69;6044551;28;97181;-65
2022/05/14 10:37:18;;;;;;;;;6.00;6.00;;;;;27.89;23.80;98983.59;6040387;28;99743;-67
2022/05/14 10:40:27;;;;;;;;;6.00;5.80;;;;;27.98;23.31;98976.84;6030767;28;98960;-66
2022/05/14 10:43:39;;;;;;;;;7.00;7.00;;;;;28.09;23.39;98976.47;6045352;28;100282;-68
2022/05/14 10:46:47;;;;;;;;;8.00;7.40;;;;;28.14;23.60;98974.38;6045270;28;96710;-66
2022/05/14 10:49:59;;;;;;;;;7.40;7.00;;;;;27.91;23.06;98976.56;6044913;28;97057;-68
2022/05/14 10:53:06;;;;;;;;;5.60;5.60;;;;;27.94;22.92;98975.09;6040572;28;96857;-66
2022/05/14 10:56:14;;;;;;;;;7.00;7.00;;;;;27.85;22.82;98966.00;6043713;28;97570;-68
2022/05/14 10:59:33;;;;;;;;;8.00;7.60;;;;;27.87;23.32;98955.38;6044475;28;96416;-63
2022/05/14 11:02:53;;;;;;;;;7.25;6.25;;;;;28.07;23.64;98964.91;6027950;28;98324;-67
2022/05/14 11:06:10;;;;;;;;;8.00;6.00;;;;;28.47;23.30;98963.38;6044813;28;96464;-68
2022/05/14 11:09:18;;;;;;;;;6.75;6.00;;;;;28.39;23.50;98965.03;6026108;28;98382;-65
2022/05/14 11:12:33;;;;;;;;;7.40;7.40;;;;;28.48;23.11;98976.09;6044631;28;96546;-66
2022/05/14 11:15:36;;;;;;;;;5.00;5.00;;;;;27.84;22.96;98945.81;6027131;28;97578;-70
2022/05/14 11:18:50;;;;;;;;;5.00;5.00;;;;;27.78;23.81;98949.91;6005007;29;99472;-71
2022/05/14 11:21:55;;;;;;;;;7.00;7.00;;;;;27.68;23.88;98955.81;6003614;29;98726;-71
2022/05/14 11:25:09;;;;;;;;;6.00;6.00;;;;;27.83;24.22;98959.97;6026641;28;97522;-71
2022/05/14 11:28:27;;;;;;;;;5.00;5.00;;;;;27.66;23.35;98957.31;6025312;28;97131;-71
2022/05/14 11:31:39;;;;;;;;;6.00;6.00;;;;;28.13;23.03;98944.19;6044096;28;97478;-70
2022/05/14 11:34:54;;;;;;;;;7.00;6.00;;;;;28.61;23.22;98946.44;6043803;28;96730;-71
2022/05/14 11:37:58;;;;;;;;;7.00;7.00;;;;;28.78;22.91;98949.91;6043890;28;96950;-71
2022/05/14 11:41:03;;;;;;;;;7.00;7.00;;;;;28.53;22.92;98952.88;6025008;28;99539;-70
2022/05/14 11:44:07;;;;;;;;;7.00;4.20;;;;;28.38;23.50;98952.34;6041462;28;96755;-69
2022/05/14 11:47:47;;;;;;;;;8.00;8.00;;;;;28.53;23.24;98947.34;6041342;28;98218;-69
2022/05/14 11:50:59;;;;;;;;;6.80;6.00;;;;;28.63;22.92;98946.94;6010636;29;96916;-73
2022/05/14 11:54:08;;;;;;;;;7.00;6.20;;;;;28.75;22.51;98945.06;6018582;29;97465;-71
2022/05/14 11:57:18;;;;;;;;;7.80;5.80;;;;;28.85;22.64;98955.72;6020440;29;97667;-71
2022/05/14 12:00:28;;;;;;;;;6.60;6.00;;;;;28.16;22.52;98922.16;6041332;28;96556;-72
2022/05/14 12:03:34;;;;;;;;;6.00;6.00;;;;;28.44;22.80;98942.66;6042093;28;98240;-72
2022/05/14 12:07:07;;;;;;;;;5.00;5.00;;;;;28.29;22.49;98932.19;6024949;28;97223;-72
2022/05/14 12:10:23;;;;;;;;;6.00;5.40;;;;;28.44;22.35;98941.88;6018847;29;97653;-71
2022/05/14 12:13:37;;;;;;;;;5.20;4.80;;;;;28.47;22.22;98941.19;6018385;29;97564;-70
2022/05/14 12:16:48;;;;;;;;;5.00;5.00;;;;;28.11;22.29;98938.97;6034860;28;97582;-69
2022/05/14 12:19:55;;;;;;;;;6.00;5.40;;;;;28.16;22.36;98930.47;6058588;28;97521;-71
2022/05/14 12:23:02;;;;;;;;;7.00;6.00;;;;;28.39;22.51;98942.84;6042415;28;96722;-71
2022/05/14 12:26:07;;;;;;;;;5.80;5.80;;;;;28.70;22.01;98933.31;6041973;28;98350;-72
2022/05/14 12:29:16;;;;;;;;;5.00;5.00;;;;;28.46;21.68;98933.19;6042762;28;97581;-71
2022/05/14 12:35:43;;;;;;;;;5.00;4.60;;;;;28.12;22.22;98917.63;6023067;28;97104;-70
2022/05/14 12:38:49;;;;;;;;;5.00;5.00;;;;;28.28;22.35;98927.78;6040872;28;98139;-72
2022/05/14 12:41:56;;;;;;;;;4.00;4.00;;;;;28.51;22.27;98919.13;6012075;28;98806;-72
2022/05/14 12:45:00;;;;;;;;;4.20;4.20;;;;;28.85;22.02;98924.41;6043195;28;97293;-69
2022/05/14 12:48:05;;;;;;;;;5.00;5.00;;;;;28.96;21.65;98920.03;6024197;28;99835;-72
2022/05/14 12:51:18;;;;;;;;;6.00;5.00;;;;;28.93;21.09;98912.38;6043049;28;96582;-69
2022/05/14 12:54:26;;;;;;;;;6.00;6.00;;;;;28.87;21.93;98922.09;6026108;28;96601;-71
2022/05/14 12:57:31;;;;;;;;;6.40;6.00;;;;;28.60;21.33;98912.34;6042462;28;96899;-70
2022/05/14 13:00:38;;;;;;;;;5.00;5.00;;;;;28.24;22.04;98903.84;6010178;28;97905;-70
2022/05/14 13:03:46;;;;;;;;;5.00;5.00;;;;;28.11;22.09;98915.97;6023402;28;98084;-68
2022/05/14 13:06:49;;;;;;;;;5.00;5.00;;;;;28.13;21.82;98914.53;6042188;28;96678;-70
2022/05/14 13:09:57;;;;;;;;;3.00;3.00;;;;;27.86;22.10;98914.97;6024389;28;98387;-70
2022/05/14 13:13:03;;;;;;;;;4.00;4.00;;;;;27.68;22.42;98910.66;6016523;28;97804;-70
2022/05/14 13:16:12;;;;;;;;;5.00;5.00;;;;;27.48;22.47;98906.66;6010916;28;99490;-71
2022/05/14 13:19:21;;;;;;;;;4.00;4.00;;;;;27.54;22.44;98899.84;6026254;28;97003;-70
2022/05/14 13:22:32;;;;;;;;;5.00;4.00;;;;;27.72;22.55;98906.91;6024597;28;98743;-70
2022/05/14 13:25:38;;;;;;;;;3.00;3.00;;;;;27.72;21.90;98901.34;6032331;28;97609;-70
2022/05/14 13:28:44;;;;;;;;;4.00;4.00;;;;;27.87;22.34;98888.88;6018050;29;97240;-71
2022/05/14 13:31:48;;;;;;;;;4.40;3.60;;;;;28.11;22.28;98900.19;6038024;28;96570;-70
2022/05/14 13:38:13;;;;;;;;;4.40;4.00;;;;;28.15;21.79;98880.94;6045914;28;96639;-70
2022/05/14 13:41:23;;;;;;;;;5.00;5.00;;;;;28.01;22.15;98895.81;6046696;28;97414;-71
2022/05/14 13:44:28;;;;;;;;;5.00;4.50;;;;;28.06;21.76;98885.66;6045772;28;96660;-70
2022/05/14 13:47:31;;;;;;;;;3.00;3.00;;;;;27.82;21.82;98872.47;6026964;28;96715;-70
2022/05/14 13:50:38;;;;;;;;;5.00;4.00;;;;;27.98;21.83;98868.78;6046473;28;96952;-70
2022/05/14 13:53:41;;;;;;;;;4.60;4.00;;;;;28.40;21.39;98885.44;6045688;28;98515;-70
2022/05/14 13:56:49;;;;;;;;;4.00;4.00;;;;;28.46;21.57;98888.81;6027504;28;98475;-69
2022/05/14 14:00:05;;;;;;;;;7.00;6.00;;;;;28.56;21.17;98877.31;6044708;28;96976;-70
2022/05/14 14:03:19;;;;;;;;;3.60;3.00;;;;;28.71;21.63;98880.31;6035082;28;96665;-71
2022/05/14 14:06:26;;;;;;;;;4.00;4.00;;;;;28.84;21.27;98870.84;6012855;28;98517;-71
2022/05/14 14:09:30;;;;;;;;;5.00;4.00;;;;;29.11;21.64;98880.53;6030635;28;96403;-70
2022/05/14 14:12:35;;;;;;;;;5.00;5.00;;;;;29.35;21.14;98870.63;6012409;29;97169;-72
2022/05/14 14:15:39;;;;;;;;;5.40;5.40;;;;;29.08;20.71;98872.88;6031852;28;97361;-71
2022/05/14 14:18:42;;;;;;;;;5.00;5.00;;;;;28.98;20.82;98869.75;6045359;28;96913;-69
2022/05/14 14:21:46;;;;;;;;;6.00;5.00;;;;;28.98;20.89;98881.63;6027663;28;97228;-70
2022/05/14 14:24:51;;;;;;;;;6.60;6.00;;;;;28.66;20.70;98874.13;6045072;28;96567;-70
2022/05/14 14:27:56;;;;;;;;;6.00;6.00;;;;;28.53;21.02;98886.31;6028049;28;96593;-71
2022/05/14 14:31:03;;;;;;;;;6.00;6.00;;;;;28.52;22.06;98879.97;6044584;28;97490;-71
2022/05/14 14:34:08;;;;;;;;;9.00;8.00;;;;;28.56;21.23;98875.34;6027911;28;96656;-72
2022/05/14 14:37:11;;;;;;;;;5.00;5.00;;;;;28.55;21.60;98884.00;6027696;28;96522;-70
2022/05/14 14:40:15;;;;;;;;;5.00;5.00;;;;;28.69;21.96;98881.75;6028677;28;97117;-70
2022/05/14 14:43:23;;;;;;;;;6.40;6.00;;;;;28.66;21.18;98882.44;6044281;28;97023;-70
2022/05/14 14:46:26;;;;;;;;;7.40;6.40;;;;;28.58;21.29;98881.38;6027373;28;96680;-70
2022/05/14 14:49:29;;;;;;;;;8.00;7.00;;;;;28.32;21.45;98887.13;6044840;28;96924;-70
2022/05/14 14:52:33;;;;;;;;;6.00;6.00;;;;;28.11;21.93;98872.47;6043765;28;97410;-70
2022/05/14 14:55:36;;;;;;;;;5.20;5.20;;;;;28.23;21.76;98875.31;6027863;28;97531;-72
2022/05/14 14:58:42;;;;;;;;;7.00;7.00;;;;;28.18;22.02;98855.28;6027875;28;96778;-71
2022/05/14 15:01:50;;;;;;;;;6.50;6.50;;;;;28.48;21.25;98881.78;6044134;28;96763;-71